sensor_id;sensor_type;location;lat;lon;timestamp;P1;durP1;ratioP1;P2;durP2;ratioP2
20042;SDS011;10182;52.896;6.496;2023-02-28T00:04:38;9.57;;;4.17;;
20042;SDS011;10182;52.896;6.496;2023-02-28T00:09:44;5.30;;;4.07;;
20042;SDS011;10182;52.896;6.496;2023-02-28T00:14:56;6.13;;;4.10;;
20042;SDS011;10182;52.896;6.496;2023-02-28T00:19:59;7.73;;;4.20;;
20042;SDS011;10182;52.896;6.496;2023-02-28T00:25:11;9.57;;;4.13;;
20042;SDS011;10182;52.896;6.496;2023-02-28T00:30:15;5.57;;;3.73;;
20042;SDS011;10182;52.896;6.496;2023-02-28T00:35:19;10.53;;;4.43;;
20042;SDS011;10182;52.896;6.496;2023-02-28T00:40:21;9.53;;;4.03;;
20042;SDS011;10182;52.896;6.496;2023-02-28T00:45:23;9.67;;;4.43;;
20042;SDS011;10182;52.896;6.496;2023-02-28T00:50:26;7.67;;;3.97;;
20042;SDS011;10182;52.896;6.496;2023-02-28T00:55:28;9.97;;;4.50;;
20042;SDS011;10182;52.896;6.496;2023-02-28T01:00:33;8.30;;;4.10;;
20042;SDS011;10182;52.896;6.496;2023-02-28T01:05:36;7.73;;;4.67;;
20042;SDS011;10182;52.896;6.496;2023-02-28T01:10:38;8.83;;;4.53;;
20042;SDS011;10182;52.896;6.496;2023-02-28T01:15:45;8.33;;;4.17;;
20042;SDS011;10182;52.896;6.496;2023-02-28T01:20:51;10.20;;;4.93;;
20042;SDS011;10182;52.896;6.496;2023-02-28T01:25:53;10.50;;;5.10;;
20042;SDS011;10182;52.896;6.496;2023-02-28T01:30:55;7.87;;;4.87;;
20042;SDS011;10182;52.896;6.496;2023-02-28T01:35:59;12.50;;;5.17;;
20042;SDS011;10182;52.896;6.496;2023-02-28T01:41:01;6.83;;;4.17;;
20042;SDS011;10182;52.896;6.496;2023-02-28T01:46:03;8.20;;;5.20;;
20042;SDS011;10182;52.896;6.496;2023-02-28T01:51:08;11.07;;;4.87;;
20042;SDS011;10182;52.896;6.496;2023-02-28T01:56:15;10.27;;;4.67;;
20042;SDS011;10182;52.896;6.496;2023-02-28T02:01:25;8.43;;;4.90;;
20042;SDS011;10182;52.896;6.496;2023-02-28T02:06:30;9.23;;;5.23;;
20042;SDS011;10182;52.896;6.496;2023-02-28T02:11:36;11.07;;;5.50;;
20042;SDS011;10182;52.896;6.496;2023-02-28T02:16:41;7.90;;;4.70;;
20042;SDS011;10182;52.896;6.496;2023-02-28T02:27:39;8.80;;;5.80;;
20042;SDS011;10182;52.896;6.496;2023-02-28T02:33:06;8.07;;;4.93;;
20042;SDS011;10182;52.896;6.496;2023-02-28T02:38:20;8.30;;;4.77;;
20042;SDS011;10182;52.896;6.496;2023-02-28T02:43:32;5.03;;;4.27;;
20042;SDS011;10182;52.896;6.496;2023-02-28T02:48:44;9.07;;;5.00;;
20042;SDS011;10182;52.896;6.496;2023-02-28T02:53:50;6.07;;;4.30;;
20042;SDS011;10182;52.896;6.496;2023-02-28T02:58:58;8.70;;;4.20;;
20042;SDS011;10182;52.896;6.496;2023-02-28T03:04:05;9.87;;;4.67;;
20042;SDS011;10182;52.896;6.496;2023-02-28T03:09:11;4.93;;;4.07;;
20042;SDS011;10182;52.896;6.496;2023-02-28T03:14:24;7.63;;;4.80;;
20042;SDS011;10182;52.896;6.496;2023-02-28T03:19:34;6.77;;;4.60;;
20042;SDS011;10182;52.896;6.496;2023-02-28T03:24:52;8.73;;;4.90;;
20042;SDS011;10182;52.896;6.496;2023-02-28T03:30:03;6.53;;;5.63;;
20042;SDS011;10182;52.896;6.496;2023-02-28T03:35:12;11.17;;;5.87;;
20042;SDS011;10182;52.896;6.496;2023-02-28T03:40:25;6.40;;;5.77;;
20042;SDS011;10182;52.896;6.496;2023-02-28T03:45:34;9.40;;;5.87;;
20042;SDS011;10182;52.896;6.496;2023-02-28T03:50:41;9.60;;;6.27;;
20042;SDS011;10182;52.896;6.496;2023-02-28T03:55:51;10.60;;;7.57;;
20042;SDS011;10182;52.896;6.496;2023-02-28T04:00:59;12.13;;;9.00;;
20042;SDS011;10182;52.896;6.496;2023-02-28T04:06:08;14.93;;;9.20;;
20042;SDS011;10182;52.896;6.496;2023-02-28T04:11:20;12.93;;;8.73;;
20042;SDS011;10182;52.896;6.496;2023-02-28T04:16:24;16.00;;;10.67;;
20042;SDS011;10182;52.896;6.496;2023-02-28T04:21:27;14.30;;;10.50;;
20042;SDS011;10182;52.896;6.496;2023-02-28T04:26:30;19.40;;;12.03;;
20042;SDS011;10182;52.896;6.496;2023-02-28T04:31:35;15.80;;;11.00;;
20042;SDS011;10182;52.896;6.496;2023-02-28T04:36:37;20.63;;;13.47;;
20042;SDS011;10182;52.896;6.496;2023-02-28T04:41:40;23.87;;;14.67;;
20042;SDS011;10182;52.896;6.496;2023-02-28T04:46:42;27.47;;;14.27;;
20042;SDS011;10182;52.896;6.496;2023-02-28T04:51:45;20.87;;;14.17;;
20042;SDS011;10182;52.896;6.496;2023-02-28T04:56:48;18.63;;;14.07;;
20042;SDS011;10182;52.896;6.496;2023-02-28T05:01:50;23.80;;;15.00;;
20042;SDS011;10182;52.896;6.496;2023-02-28T05:06:52;23.43;;;15.43;;
20042;SDS011;10182;52.896;6.496;2023-02-28T05:11:55;24.70;;;15.67;;
20042;SDS011;10182;52.896;6.496;2023-02-28T05:16:58;20.07;;;14.60;;
20042;SDS011;10182;52.896;6.496;2023-02-28T05:22:00;28.80;;;16.43;;
20042;SDS011;10182;52.896;6.496;2023-02-28T05:27:04;26.70;;;16.43;;
20042;SDS011;10182;52.896;6.496;2023-02-28T05:32:09;22.97;;;16.50;;
20042;SDS011;10182;52.896;6.496;2023-02-28T05:37:12;21.63;;;14.83;;
20042;SDS011;10182;52.896;6.496;2023-02-28T05:42:17;20.67;;;15.10;;
20042;SDS011;10182;52.896;6.496;2023-02-28T05:47:18;23.10;;;15.50;;
20042;SDS011;10182;52.896;6.496;2023-02-28T05:52:22;22.87;;;14.27;;
20042;SDS011;10182;52.896;6.496;2023-02-28T05:57:29;26.00;;;15.40;;
20042;SDS011;10182;52.896;6.496;2023-02-28T06:02:31;26.17;;;15.60;;
20042;SDS011;10182;52.896;6.496;2023-02-28T06:07:32;25.37;;;16.57;;
20042;SDS011;10182;52.896;6.496;2023-02-28T06:12:36;24.73;;;16.53;;
20042;SDS011;10182;52.896;6.496;2023-02-28T06:17:38;25.90;;;16.27;;
20042;SDS011;10182;52.896;6.496;2023-02-28T06:22:41;29.93;;;17.53;;
20042;SDS011;10182;52.896;6.496;2023-02-28T06:27:44;27.57;;;16.83;;
20042;SDS011;10182;52.896;6.496;2023-02-28T06:32:46;25.53;;;15.83;;
20042;SDS011;10182;52.896;6.496;2023-02-28T06:37:49;25.00;;;15.53;;
20042;SDS011;10182;52.896;6.496;2023-02-28T06:42:52;24.50;;;16.03;;
20042;SDS011;10182;52.896;6.496;2023-02-28T06:47:54;23.67;;;16.50;;
20042;SDS011;10182;52.896;6.496;2023-02-28T06:52:56;27.47;;;16.27;;
20042;SDS011;10182;52.896;6.496;2023-02-28T06:57:59;29.00;;;16.03;;
20042;SDS011;10182;52.896;6.496;2023-02-28T07:03:03;25.43;;;16.30;;
20042;SDS011;10182;52.896;6.496;2023-02-28T07:08:09;24.50;;;16.07;;
20042;SDS011;10182;52.896;6.496;2023-02-28T07:13:12;22.73;;;15.60;;
20042;SDS011;10182;52.896;6.496;2023-02-28T07:18:14;25.17;;;17.00;;
20042;SDS011;10182;52.896;6.496;2023-02-28T07:23:16;32.43;;;17.73;;
20042;SDS011;10182;52.896;6.496;2023-02-28T07:28:20;26.93;;;16.67;;
20042;SDS011;10182;52.896;6.496;2023-02-28T07:33:22;26.40;;;16.70;;
20042;SDS011;10182;52.896;6.496;2023-02-28T07:38:25;29.13;;;18.27;;
20042;SDS011;10182;52.896;6.496;2023-02-28T07:43:28;24.23;;;16.10;;
20042;SDS011;10182;52.896;6.496;2023-02-28T07:48:30;25.63;;;16.73;;
20042;SDS011;10182;52.896;6.496;2023-02-28T07:53:33;27.67;;;18.23;;
20042;SDS011;10182;52.896;6.496;2023-02-28T07:58:36;27.03;;;17.40;;
20042;SDS011;10182;52.896;6.496;2023-02-28T08:03:39;25.43;;;15.50;;
20042;SDS011;10182;52.896;6.496;2023-02-28T08:08:42;25.00;;;15.90;;
20042;SDS011;10182;52.896;6.496;2023-02-28T08:13:46;28.27;;;16.90;;
20042;SDS011;10182;52.896;6.496;2023-02-28T08:18:48;22.73;;;16.53;;
20042;SDS011;10182;52.896;6.496;2023-02-28T08:23:50;24.83;;;17.40;;
20042;SDS011;10182;52.896;6.496;2023-02-28T08:28:54;24.33;;;17.70;;
20042;SDS011;10182;52.896;6.496;2023-02-28T08:33:56;21.47;;;16.13;;
20042;SDS011;10182;52.896;6.496;2023-02-28T08:38:59;22.07;;;16.50;;
20042;SDS011;10182;52.896;6.496;2023-02-28T08:44:02;20.30;;;15.73;;
20042;SDS011;10182;52.896;6.496;2023-02-28T08:49:04;23.33;;;16.40;;
20042;SDS011;10182;52.896;6.496;2023-02-28T08:54:07;19.87;;;15.30;;
20042;SDS011;10182;52.896;6.496;2023-02-28T08:59:14;24.43;;;15.20;;
20042;SDS011;10182;52.896;6.496;2023-02-28T09:04:16;23.23;;;16.50;;
20042;SDS011;10182;52.896;6.496;2023-02-28T09:09:17;21.27;;;15.07;;
20042;SDS011;10182;52.896;6.496;2023-02-28T09:14:21;16.47;;;12.67;;
20042;SDS011;10182;52.896;6.496;2023-02-28T09:19:23;18.03;;;13.80;;
20042;SDS011;10182;52.896;6.496;2023-02-28T09:24:25;17.33;;;12.87;;
20042;SDS011;10182;52.896;6.496;2023-02-28T09:29:29;15.57;;;11.47;;
20042;SDS011;10182;52.896;6.496;2023-02-28T09:34:33;13.67;;;11.20;;
20042;SDS011;10182;52.896;6.496;2023-02-28T09:39:39;13.67;;;10.70;;
20042;SDS011;10182;52.896;6.496;2023-02-28T09:44:44;11.60;;;9.47;;
20042;SDS011;10182;52.896;6.496;2023-02-28T09:49:49;13.67;;;10.33;;
20042;SDS011;10182;52.896;6.496;2023-02-28T09:54:51;11.87;;;9.67;;
20042;SDS011;10182;52.896;6.496;2023-02-28T10:00:02;11.73;;;9.83;;
20042;SDS011;10182;52.896;6.496;2023-02-28T10:05:11;8.80;;;6.17;;
20042;SDS011;10182;52.896;6.496;2023-02-28T10:10:20;6.97;;;6.27;;
20042;SDS011;10182;52.896;6.496;2023-02-28T10:15:27;7.60;;;6.60;;
20042;SDS011;10182;52.896;6.496;2023-02-28T10:20:34;9.37;;;6.77;;
20042;SDS011;10182;52.896;6.496;2023-02-28T10:25:40;9.40;;;7.23;;
20042;SDS011;10182;52.896;6.496;2023-02-28T10:30:53;12.93;;;8.17;;
20042;SDS011;10182;52.896;6.496;2023-02-28T10:35:58;8.30;;;7.10;;
20042;SDS011;10182;52.896;6.496;2023-02-28T10:41:03;9.13;;;7.03;;
20042;SDS011;10182;52.896;6.496;2023-02-28T10:46:11;8.77;;;6.37;;
20042;SDS011;10182;52.896;6.496;2023-02-28T10:51:25;9.00;;;6.87;;
20042;SDS011;10182;52.896;6.496;2023-02-28T10:56:36;15.40;;;7.87;;
20042;SDS011;10182;52.896;6.496;2023-02-28T11:01:40;11.03;;;6.93;;
20042;SDS011;10182;52.896;6.496;2023-02-28T11:06:43;9.10;;;7.60;;
20042;SDS011;10182;52.896;6.496;2023-02-28T11:11:46;11.20;;;7.80;;
20042;SDS011;10182;52.896;6.496;2023-02-28T11:16:51;12.53;;;7.33;;
20042;SDS011;10182;52.896;6.496;2023-02-28T11:21:55;10.23;;;7.63;;
20042;SDS011;10182;52.896;6.496;2023-02-28T11:27:00;6.53;;;4.93;;
20042;SDS011;10182;52.896;6.496;2023-02-28T11:32:13;8.20;;;5.33;;
20042;SDS011;10182;52.896;6.496;2023-02-28T11:37:20;5.53;;;5.03;;
20042;SDS011;10182;52.896;6.496;2023-02-28T11:42:29;6.20;;;4.43;;
20042;SDS011;10182;52.896;6.496;2023-02-28T11:47:44;5.93;;;4.70;;
20042;SDS011;10182;52.896;6.496;2023-02-28T11:52:51;5.03;;;4.53;;
20042;SDS011;10182;52.896;6.496;2023-02-28T12:03:37;6.10;;;4.10;;
20042;SDS011;10182;52.896;6.496;2023-02-28T12:08:59;6.30;;;4.00;;
20042;SDS011;10182;52.896;6.496;2023-02-28T12:14:14;5.27;;;4.40;;
20042;SDS011;10182;52.896;6.496;2023-02-28T12:19:45;7.13;;;6.23;;
20042;SDS011;10182;52.896;6.496;2023-02-28T12:30:32;7.20;;;5.10;;
20042;SDS011;10182;52.896;6.496;2023-02-28T12:35:47;5.00;;;3.70;;
20042;SDS011;10182;52.896;6.496;2023-02-28T12:40:53;3.97;;;3.53;;
20042;SDS011;10182;52.896;6.496;2023-02-28T12:45:59;6.13;;;4.20;;
20042;SDS011;10182;52.896;6.496;2023-02-28T12:51:06;4.60;;;4.07;;
20042;SDS011;10182;52.896;6.496;2023-02-28T12:56:12;4.03;;;3.47;;
20042;SDS011;10182;52.896;6.496;2023-02-28T13:01:30;3.40;;;3.10;;
20042;SDS011;10182;52.896;6.496;2023-02-28T13:06:44;4.53;;;4.10;;
20042;SDS011;10182;52.896;6.496;2023-02-28T13:12:12;4.90;;;3.70;;
20042;SDS011;10182;52.896;6.496;2023-02-28T13:17:17;6.23;;;3.50;;
20042;SDS011;10182;52.896;6.496;2023-02-28T13:22:35;4.80;;;4.27;;
20042;SDS011;10182;52.896;6.496;2023-02-28T13:27:40;6.87;;;4.30;;
20042;SDS011;10182;52.896;6.496;2023-02-28T13:32:43;4.63;;;3.90;;
20042;SDS011;10182;52.896;6.496;2023-02-28T13:37:47;4.90;;;4.10;;
20042;SDS011;10182;52.896;6.496;2023-02-28T13:42:52;4.77;;;4.27;;
20042;SDS011;10182;52.896;6.496;2023-02-28T13:47:58;7.70;;;4.23;;
20042;SDS011;10182;52.896;6.496;2023-02-28T13:53:17;5.27;;;4.40;;
20042;SDS011;10182;52.896;6.496;2023-02-28T13:58:44;6.90;;;5.07;;
20042;SDS011;10182;52.896;6.496;2023-02-28T14:04:09;6.03;;;5.43;;
20042;SDS011;10182;52.896;6.496;2023-02-28T14:09:30;5.73;;;5.23;;
20042;SDS011;10182;52.896;6.496;2023-02-28T14:14:54;5.80;;;5.03;;
20042;SDS011;10182;52.896;6.496;2023-02-28T14:19:58;5.73;;;4.90;;
20042;SDS011;10182;52.896;6.496;2023-02-28T14:25:07;5.57;;;5.03;;
20042;SDS011;10182;52.896;6.496;2023-02-28T14:30:20;7.87;;;5.00;;
20042;SDS011;10182;52.896;6.496;2023-02-28T14:35:49;5.70;;;4.83;;
20042;SDS011;10182;52.896;6.496;2023-02-28T14:41:00;7.23;;;5.37;;
20042;SDS011;10182;52.896;6.496;2023-02-28T14:46:06;6.67;;;5.97;;
20042;SDS011;10182;52.896;6.496;2023-02-28T14:51:18;6.20;;;5.60;;
20042;SDS011;10182;52.896;6.496;2023-02-28T14:56:33;6.40;;;5.77;;
20042;SDS011;10182;52.896;6.496;2023-02-28T15:01:38;6.00;;;5.07;;
20042;SDS011;10182;52.896;6.496;2023-02-28T15:06:42;5.07;;;4.57;;
20042;SDS011;10182;52.896;6.496;2023-02-28T15:11:47;7.00;;;5.07;;
20042;SDS011;10182;52.896;6.496;2023-02-28T15:16:52;6.47;;;5.00;;
20042;SDS011;10182;52.896;6.496;2023-02-28T15:22:01;4.87;;;4.20;;
20042;SDS011;10182;52.896;6.496;2023-02-28T15:27:11;6.37;;;4.50;;
20042;SDS011;10182;52.896;6.496;2023-02-28T15:32:23;8.77;;;4.90;;
20042;SDS011;10182;52.896;6.496;2023-02-28T15:37:29;6.57;;;4.33;;
20042;SDS011;10182;52.896;6.496;2023-02-28T15:42:40;4.80;;;4.33;;
20042;SDS011;10182;52.896;6.496;2023-02-28T15:47:44;7.13;;;4.97;;
20042;SDS011;10182;52.896;6.496;2023-02-28T15:52:47;7.57;;;5.50;;
20042;SDS011;10182;52.896;6.496;2023-02-28T15:57:51;6.40;;;4.83;;
20042;SDS011;10182;52.896;6.496;2023-02-28T16:02:56;7.97;;;5.30;;
20042;SDS011;10182;52.896;6.496;2023-02-28T16:08:01;7.20;;;6.10;;
20042;SDS011;10182;52.896;6.496;2023-02-28T16:13:13;7.37;;;5.33;;
20042;SDS011;10182;52.896;6.496;2023-02-28T16:18:16;6.10;;;5.33;;
20042;SDS011;10182;52.896;6.496;2023-02-28T16:23:18;9.50;;;6.10;;
20042;SDS011;10182;52.896;6.496;2023-02-28T16:28:23;7.50;;;6.03;;
20042;SDS011;10182;52.896;6.496;2023-02-28T16:33:31;10.43;;;6.77;;
20042;SDS011;10182;52.896;6.496;2023-02-28T16:38:33;7.77;;;6.63;;
20042;SDS011;10182;52.896;6.496;2023-02-28T16:43:37;8.00;;;6.00;;
20042;SDS011;10182;52.896;6.496;2023-02-28T16:48:42;7.63;;;6.30;;
20042;SDS011;10182;52.896;6.496;2023-02-28T16:53:44;7.10;;;6.43;;
20042;SDS011;10182;52.896;6.496;2023-02-28T16:58:48;7.53;;;6.30;;
20042;SDS011;10182;52.896;6.496;2023-02-28T17:03:51;10.33;;;7.70;;
20042;SDS011;10182;52.896;6.496;2023-02-28T17:08:53;9.30;;;7.13;;
20042;SDS011;10182;52.896;6.496;2023-02-28T17:13:57;8.63;;;7.83;;
20042;SDS011;10182;52.896;6.496;2023-02-28T17:19:00;9.53;;;8.13;;
20042;SDS011;10182;52.896;6.496;2023-02-28T17:24:06;8.30;;;7.40;;
20042;SDS011;10182;52.896;6.496;2023-02-28T17:29:14;8.47;;;7.67;;
20042;SDS011;10182;52.896;6.496;2023-02-28T17:34:17;10.07;;;8.57;;
20042;SDS011;10182;52.896;6.496;2023-02-28T17:39:20;9.77;;;7.83;;
20042;SDS011;10182;52.896;6.496;2023-02-28T17:44:27;10.00;;;8.27;;
20042;SDS011;10182;52.896;6.496;2023-02-28T17:49:29;11.63;;;8.70;;
20042;SDS011;10182;52.896;6.496;2023-02-28T17:54:31;11.57;;;8.43;;
20042;SDS011;10182;52.896;6.496;2023-02-28T17:59:34;9.17;;;8.23;;
20042;SDS011;10182;52.896;6.496;2023-02-28T18:04:36;12.03;;;8.47;;
20042;SDS011;10182;52.896;6.496;2023-02-28T18:09:38;10.50;;;9.10;;
20042;SDS011;10182;52.896;6.496;2023-02-28T18:14:44;10.93;;;9.17;;
20042;SDS011;10182;52.896;6.496;2023-02-28T18:19:47;11.53;;;9.23;;
20042;SDS011;10182;52.896;6.496;2023-02-28T18:24:51;11.00;;;9.83;;
20042;SDS011;10182;52.896;6.496;2023-02-28T18:29:55;11.50;;;9.50;;
20042;SDS011;10182;52.896;6.496;2023-02-28T18:34:57;12.53;;;10.10;;
20042;SDS011;10182;52.896;6.496;2023-02-28T18:39:58;12.40;;;9.60;;
20042;SDS011;10182;52.896;6.496;2023-02-28T18:45:02;11.57;;;10.40;;
20042;SDS011;10182;52.896;6.496;2023-02-28T18:50:04;12.37;;;11.07;;
20042;SDS011;10182;52.896;6.496;2023-02-28T18:55:08;12.90;;;10.57;;
20042;SDS011;10182;52.896;6.496;2023-02-28T19:05:21;15.67;;;11.23;;
20042;SDS011;10182;52.896;6.496;2023-02-28T19:10:24;15.33;;;11.50;;
20042;SDS011;10182;52.896;6.496;2023-02-28T19:15:28;12.87;;;11.57;;
20042;SDS011;10182;52.896;6.496;2023-02-28T19:20:30;14.57;;;11.13;;
20042;SDS011;10182;52.896;6.496;2023-02-28T19:25:32;11.73;;;10.53;;
20042;SDS011;10182;52.896;6.496;2023-02-28T19:30:35;17.37;;;13.63;;
20042;SDS011;10182;52.896;6.496;2023-02-28T19:35:38;15.53;;;13.87;;
20042;SDS011;10182;52.896;6.496;2023-02-28T19:40:40;14.57;;;12.13;;
20042;SDS011;10182;52.896;6.496;2023-02-28T19:45:43;17.00;;;11.87;;
20042;SDS011;10182;52.896;6.496;2023-02-28T19:50:46;12.73;;;11.20;;
20042;SDS011;10182;52.896;6.496;2023-02-28T19:55:48;14.07;;;12.57;;
20042;SDS011;10182;52.896;6.496;2023-02-28T20:00:52;15.60;;;12.97;;
20042;SDS011;10182;52.896;6.496;2023-02-28T20:05:58;16.00;;;13.67;;
20042;SDS011;10182;52.896;6.496;2023-02-28T20:11:02;16.90;;;13.50;;
20042;SDS011;10182;52.896;6.496;2023-02-28T20:16:06;20.07;;;15.43;;
20042;SDS011;10182;52.896;6.496;2023-02-28T20:21:09;18.43;;;15.33;;
20042;SDS011;10182;52.896;6.496;2023-02-28T20:26:12;20.70;;;16.43;;
20042;SDS011;10182;52.896;6.496;2023-02-28T20:31:17;23.57;;;15.10;;
20042;SDS011;10182;52.896;6.496;2023-02-28T20:36:21;26.40;;;16.80;;
20042;SDS011;10182;52.896;6.496;2023-02-28T20:41:23;19.03;;;16.27;;
20042;SDS011;10182;52.896;6.496;2023-02-28T20:46:27;22.97;;;16.87;;
20042;SDS011;10182;52.896;6.496;2023-02-28T20:51:30;19.40;;;16.67;;
20042;SDS011;10182;52.896;6.496;2023-02-28T20:56:40;23.03;;;17.83;;
20042;SDS011;10182;52.896;6.496;2023-02-28T21:01:44;19.77;;;16.33;;
20042;SDS011;10182;52.896;6.496;2023-02-28T21:06:46;25.93;;;19.37;;
20042;SDS011;10182;52.896;6.496;2023-02-28T21:11:52;27.00;;;20.47;;
20042;SDS011;10182;52.896;6.496;2023-02-28T21:16:55;24.80;;;19.43;;
20042;SDS011;10182;52.896;6.496;2023-02-28T21:21:57;32.73;;;20.63;;
20042;SDS011;10182;52.896;6.496;2023-02-28T21:26:59;28.17;;;22.10;;
20042;SDS011;10182;52.896;6.496;2023-02-28T21:32:03;27.17;;;20.50;;
20042;SDS011;10182;52.896;6.496;2023-02-28T21:37:09;23.87;;;20.53;;
20042;SDS011;10182;52.896;6.496;2023-02-28T21:42:14;24.13;;;19.87;;
20042;SDS011;10182;52.896;6.496;2023-02-28T21:47:17;24.60;;;20.47;;
20042;SDS011;10182;52.896;6.496;2023-02-28T21:52:19;21.43;;;18.60;;
20042;SDS011;10182;52.896;6.496;2023-02-28T21:57:21;26.97;;;21.07;;
20042;SDS011;10182;52.896;6.496;2023-02-28T22:02:24;26.17;;;20.13;;
20042;SDS011;10182;52.896;6.496;2023-02-28T22:07:26;30.47;;;21.73;;
20042;SDS011;10182;52.896;6.496;2023-02-28T22:12:28;29.83;;;22.77;;
20042;SDS011;10182;52.896;6.496;2023-02-28T22:17:32;29.40;;;21.87;;
20042;SDS011;10182;52.896;6.496;2023-02-28T22:22:34;27.40;;;21.93;;
20042;SDS011;10182;52.896;6.496;2023-02-28T22:27:40;28.60;;;23.40;;
20042;SDS011;10182;52.896;6.496;2023-02-28T22:32:43;31.60;;;22.90;;
20042;SDS011;10182;52.896;6.496;2023-02-28T22:37:46;34.13;;;24.33;;
20042;SDS011;10182;52.896;6.496;2023-02-28T22:42:48;35.87;;;24.33;;
20042;SDS011;10182;52.896;6.496;2023-02-28T22:47:51;37.00;;;24.27;;
20042;SDS011;10182;52.896;6.496;2023-02-28T22:52:53;29.47;;;23.73;;
20042;SDS011;10182;52.896;6.496;2023-02-28T22:57:55;34.17;;;25.23;;
20042;SDS011;10182;52.896;6.496;2023-02-28T23:02:58;30.90;;;23.30;;
20042;SDS011;10182;52.896;6.496;2023-02-28T23:08:00;34.23;;;24.70;;
20042;SDS011;10182;52.896;6.496;2023-02-28T23:13:02;29.53;;;23.83;;
20042;SDS011;10182;52.896;6.496;2023-02-28T23:18:05;29.07;;;23.20;;
20042;SDS011;10182;52.896;6.496;2023-02-28T23:23:07;31.73;;;24.97;;
20042;SDS011;10182;52.896;6.496;2023-02-28T23:28:10;33.40;;;23.73;;
20042;SDS011;10182;52.896;6.496;2023-02-28T23:33:13;27.43;;;22.33;;
20042;SDS011;10182;52.896;6.496;2023-02-28T23:38:16;31.43;;;22.07;;
20042;SDS011;10182;52.896;6.496;2023-02-28T23:43:18;31.07;;;22.50;;
20042;SDS011;10182;52.896;6.496;2023-02-28T23:48:21;32.00;;;21.23;;
20042;SDS011;10182;52.896;6.496;2023-02-28T23:53:23;25.83;;;19.77;;
20042;SDS011;10182;52.896;6.496;2023-02-28T23:58:25;29.43;;;22.87;;
